createdAt,value
2019-03-13T00:01:39.562Z,9.73
2019-03-13T00:04:06.903Z,10.50
2019-03-13T00:06:34.271Z,8.87
2019-03-13T00:09:01.608Z,10.33
2019-03-13T00:11:29.250Z,10.00
2019-03-13T00:13:56.678Z,9.97
2019-03-13T00:16:24.035Z,10.27
2019-03-13T00:18:51.360Z,9.73
2019-03-13T00:21:18.699Z,9.80
2019-03-13T00:23:45.903Z,9.63
2019-03-13T00:26:13.116Z,9.37
2019-03-13T00:28:40.472Z,10.13
2019-03-13T00:31:07.859Z,8.60
2019-03-13T00:33:35.079Z,8.90
2019-03-13T00:36:02.492Z,8.90
2019-03-13T00:38:29.827Z,9.40
2019-03-13T00:40:57.082Z,9.67
2019-03-13T00:43:24.413Z,10.33
2019-03-13T00:45:51.775Z,9.20
2019-03-13T00:48:19.112Z,9.67
2019-03-13T00:50:46.357Z,9.77
2019-03-13T00:53:13.679Z,8.93
2019-03-13T00:55:40.918Z,8.30
2019-03-13T00:58:08.122Z,9.17
2019-03-13T01:00:53.355Z,9.87
2019-03-13T01:03:36.728Z,9.10
2019-03-13T01:06:06.067Z,10.87
2019-03-13T01:08:33.380Z,8.93
2019-03-13T01:11:00.692Z,9.80
2019-03-13T01:13:28.016Z,9.43
2019-03-13T01:15:55.572Z,9.87
2019-03-13T01:18:23.688Z,9.13
2019-03-13T01:20:51.185Z,9.53
2019-03-13T01:23:18.508Z,9.70
2019-03-13T01:25:45.864Z,10.07
2019-03-13T01:28:13.333Z,10.20
2019-03-13T01:30:52.496Z,9.60
2019-03-13T01:33:19.917Z,8.47
2019-03-13T01:35:54.947Z,8.07
2019-03-13T01:38:22.218Z,7.73
2019-03-13T01:40:49.668Z,8.80
2019-03-13T01:43:17.008Z,7.07
2019-03-13T01:45:44.339Z,7.07
2019-03-13T01:48:11.594Z,7.30
2019-03-13T01:50:38.807Z,5.73
2019-03-13T01:53:06.330Z,7.00
2019-03-13T01:55:33.596Z,6.97
2019-03-13T01:58:02.950Z,6.87
2019-03-13T02:00:30.299Z,6.60
2019-03-13T02:02:57.528Z,6.97
2019-03-13T02:05:24.876Z,6.90
2019-03-13T02:07:52.391Z,6.47
2019-03-13T02:10:19.842Z,6.67
2019-03-13T02:12:47.195Z,6.83
2019-03-13T02:15:17.551Z,6.87
2019-03-13T02:17:44.912Z,5.97
2019-03-13T02:20:12.252Z,5.63
2019-03-13T02:22:39.599Z,6.20
2019-03-13T02:25:07.672Z,6.00
2019-03-13T02:27:35.081Z,4.80
2019-03-13T02:30:02.780Z,4.13
2019-03-13T02:32:30.106Z,5.23
2019-03-13T02:34:57.419Z,5.10
2019-03-13T02:37:24.946Z,4.70
2019-03-13T02:39:52.248Z,5.03
2019-03-13T02:42:19.699Z,4.77
2019-03-13T02:44:47.015Z,5.60
2019-03-13T02:47:18.402Z,5.10
2019-03-13T02:49:43.349Z,5.37
2019-03-13T02:52:10.697Z,5.40
2019-03-13T02:54:37.924Z,5.70
2019-03-13T02:57:05.285Z,5.77
2019-03-13T02:59:32.613Z,5.90
2019-03-13T03:02:10.135Z,6.13
2019-03-13T03:04:37.462Z,6.97
2019-03-13T03:07:04.812Z,6.77
2019-03-13T03:09:32.231Z,6.50
2019-03-13T03:11:59.480Z,6.67
2019-03-13T03:14:26.815Z,6.10
2019-03-13T03:16:54.150Z,7.20
2019-03-13T03:19:21.501Z,6.90
2019-03-13T03:21:48.798Z,6.13
2019-03-13T03:24:16.071Z,7.00
2019-03-13T03:26:43.457Z,7.17
2019-03-13T03:29:10.708Z,7.63
2019-03-13T03:31:38.118Z,7.73
2019-03-13T03:34:05.725Z,6.53
2019-03-13T03:36:33.141Z,6.63
2019-03-13T03:39:00.505Z,7.20
2019-03-13T03:41:28.522Z,8.07
2019-03-13T03:43:56.356Z,9.47
2019-03-13T03:46:23.718Z,8.37
2019-03-13T03:48:51.121Z,8.13
2019-03-13T03:51:18.440Z,8.63
2019-03-13T03:53:46.262Z,7.77
2019-03-13T03:56:13.633Z,7.37
2019-03-13T03:58:41.173Z,7.77
2019-03-13T04:01:08.740Z,6.93
2019-03-13T04:03:36.372Z,7.40
2019-03-13T04:06:05.257Z,8.07
2019-03-13T04:08:32.599Z,7.87
2019-03-13T04:10:59.744Z,6.60
2019-03-13T04:13:26.944Z,7.80
2019-03-13T04:15:54.293Z,6.77
2019-03-13T04:18:21.624Z,5.53
2019-03-13T04:20:48.965Z,4.73
2019-03-13T04:23:16.495Z,5.03
2019-03-13T04:25:43.739Z,5.63
2019-03-13T04:28:11.272Z,5.57
2019-03-13T04:30:38.509Z,4.90
2019-03-13T04:33:05.890Z,5.73
2019-03-13T04:35:33.209Z,4.30
2019-03-13T04:38:00.537Z,3.87
2019-03-13T04:40:28.067Z,4.47
2019-03-13T04:42:55.292Z,3.80
2019-03-13T04:45:26.869Z,3.53
2019-03-13T04:47:54.283Z,3.73
2019-03-13T04:50:21.670Z,3.50
2019-03-13T04:52:48.986Z,3.50
2019-03-13T04:55:16.626Z,3.57
2019-03-13T04:57:43.958Z,2.13
2019-03-13T05:00:11.936Z,3.17
2019-03-13T05:02:39.224Z,2.87
2019-03-13T05:05:06.796Z,2.63
2019-03-13T05:07:34.270Z,2.83
2019-03-13T05:10:01.502Z,2.40
2019-03-13T05:12:28.857Z,2.20
2019-03-13T05:14:56.177Z,2.33
2019-03-13T05:17:23.526Z,2.10
2019-03-13T05:19:50.853Z,2.17
2019-03-13T05:22:18.206Z,1.90
2019-03-13T05:24:47.155Z,1.80
2019-03-13T05:27:14.611Z,1.73
2019-03-13T05:29:41.981Z,1.50
2019-03-13T05:32:09.427Z,1.60
2019-03-13T05:34:36.930Z,1.80
2019-03-13T05:37:04.170Z,1.50
2019-03-13T05:39:31.374Z,1.03
2019-03-13T05:41:58.708Z,1.47
2019-03-13T05:44:26.057Z,1.53
2019-03-13T05:46:53.384Z,1.50
2019-03-13T05:49:21.109Z,1.43
2019-03-13T05:51:48.803Z,1.30
2019-03-13T05:54:33.183Z,1.30
2019-03-13T05:57:00.917Z,1.07
2019-03-13T05:59:28.720Z,1.17
2019-03-13T06:01:59.591Z,1.00
2019-03-13T06:04:27.448Z,1.20
2019-03-13T06:06:55.475Z,1.10
2019-03-13T06:09:25.501Z,1.10
2019-03-13T06:11:54.401Z,1.13
2019-03-13T06:14:36.720Z,1.20
2019-03-13T06:17:19.400Z,1.37
2019-03-13T06:20:01.117Z,1.20
2019-03-13T06:22:29.159Z,1.50
2019-03-13T06:24:59.213Z,1.40
2019-03-13T06:27:27.361Z,1.43
2019-03-13T06:29:55.396Z,1.40
2019-03-13T06:32:23.488Z,1.30
2019-03-13T06:34:51.142Z,1.40
2019-03-13T06:37:18.808Z,1.23
2019-03-13T06:39:50.330Z,0.90
2019-03-13T06:42:18.277Z,1.30
2019-03-13T06:44:46.072Z,1.20
2019-03-13T06:47:14.319Z,1.00
2019-03-13T06:49:42.475Z,1.03
2019-03-13T06:52:10.299Z,1.20
2019-03-13T06:54:38.121Z,1.20
2019-03-13T06:57:07.987Z,1.60
2019-03-13T06:59:53.867Z,1.90
2019-03-13T07:02:33.288Z,2.30
2019-03-13T07:05:21.640Z,2.07
2019-03-13T07:07:58.722Z,3.17
2019-03-13T07:10:40.716Z,2.77
2019-03-13T07:13:17.463Z,2.80
2019-03-13T07:16:07.736Z,3.03
2019-03-13T07:19:01.353Z,2.70
2019-03-13T07:22:03.995Z,2.43
2019-03-13T07:24:57.260Z,3.20
2019-03-13T07:27:44.219Z,2.87
2019-03-13T07:30:32.080Z,2.33
2019-03-13T07:33:19.807Z,3.07
2019-03-13T07:36:19.702Z,3.20
2019-03-13T07:42:56.390Z,2.63
2019-03-13T07:45:50.006Z,2.67
2019-03-13T07:48:43.560Z,2.63
2019-03-13T07:51:33.759Z,3.20
2019-03-13T07:55:00.636Z,3.03
2019-03-13T07:57:48.689Z,3.10
2019-03-13T08:00:33.754Z,3.50
2019-03-13T08:03:10.232Z,2.70
2019-03-13T08:06:13.521Z,3.27
2019-03-13T08:08:59.541Z,2.93
2019-03-13T08:12:05.830Z,3.20
2019-03-13T08:14:53.759Z,3.30
2019-03-13T08:17:31.172Z,2.77
2019-03-13T08:20:24.295Z,3.20
2019-03-13T08:23:12.095Z,3.50
2019-03-13T08:25:58.618Z,3.40
2019-03-13T08:28:45.113Z,2.83
2019-03-13T08:31:39.284Z,3.37
2019-03-13T08:34:42.151Z,2.47
2019-03-13T08:37:31.465Z,2.97
2019-03-13T08:40:12.553Z,2.77
2019-03-13T08:43:12.804Z,3.13
2019-03-13T08:46:18.445Z,3.50
2019-03-13T08:49:18.329Z,3.03
2019-03-13T08:51:56.777Z,3.20
2019-03-13T08:57:56.651Z,2.80
2019-03-13T09:00:33.917Z,2.90
2019-03-13T09:03:19.981Z,2.70
2019-03-13T09:06:10.444Z,3.40
2019-03-13T09:08:56.183Z,2.60
2019-03-13T09:11:50.772Z,3.00
2019-03-13T09:14:43.524Z,2.93
2019-03-13T09:17:45.332Z,2.27
2019-03-13T09:20:35.734Z,2.47
2019-03-13T09:23:23.839Z,2.70
2019-03-13T09:26:13.342Z,1.93
2019-03-13T09:28:58.653Z,2.13
2019-03-13T09:31:38.007Z,2.27
2019-03-13T09:34:11.100Z,1.50
2019-03-13T09:36:51.659Z,1.80
2019-03-13T09:39:47.745Z,1.80
2019-03-13T09:42:37.494Z,1.40
2019-03-13T09:45:27.552Z,1.53
2019-03-13T09:48:08.668Z,1.97
2019-03-13T09:50:40.348Z,1.50
2019-03-13T09:53:18.149Z,1.50
2019-03-13T09:56:05.243Z,1.40
2019-03-13T09:58:51.285Z,1.20
2019-03-13T10:01:38.251Z,1.30
2019-03-13T10:04:39.915Z,1.40
2019-03-13T10:07:14.503Z,1.63
2019-03-13T10:09:56.313Z,1.60
2019-03-13T10:12:49.428Z,1.80
2019-03-13T10:15:39.085Z,1.60
2019-03-13T10:18:25.385Z,1.83
2019-03-13T10:21:05.673Z,1.30
2019-03-13T10:23:47.436Z,1.33
2019-03-13T10:26:40.159Z,1.80
2019-03-13T10:29:14.583Z,1.70
2019-03-13T10:32:00.156Z,1.77
2019-03-13T10:34:59.040Z,1.70
2019-03-13T10:37:45.919Z,1.73
2019-03-13T10:40:35.696Z,1.80
2019-03-13T10:43:21.443Z,2.03
2019-03-13T10:46:04.204Z,1.70
2019-03-13T10:48:53.338Z,2.60
2019-03-13T10:51:42.928Z,2.57
2019-03-13T10:54:38.617Z,2.73
2019-03-13T10:57:27.076Z,2.40
2019-03-13T11:00:20.088Z,2.70
2019-03-13T11:02:56.917Z,2.97
2019-03-13T11:05:42.823Z,3.70
2019-03-13T11:08:32.594Z,3.70
2019-03-13T11:11:22.339Z,4.20
2019-03-13T11:14:15.743Z,3.30
2019-03-13T11:16:50.231Z,3.60
2019-03-13T11:19:35.720Z,3.90
2019-03-13T11:22:37.882Z,3.50
2019-03-13T11:25:25.546Z,4.33
2019-03-13T11:28:14.796Z,3.83
2019-03-13T11:31:06.351Z,4.03
2019-03-13T11:33:55.672Z,4.80
2019-03-13T11:36:42.295Z,4.93
2019-03-13T11:39:26.056Z,5.70
2019-03-13T11:42:12.600Z,6.10
2019-03-13T11:44:55.591Z,5.10
2019-03-13T11:47:42.706Z,6.13
2019-03-13T11:50:22.164Z,6.40
2019-03-13T11:53:00.391Z,6.73
2019-03-13T11:55:46.561Z,6.37
2019-03-13T11:58:33.534Z,7.57
2019-03-13T12:01:18.804Z,7.30
2019-03-13T12:04:11.700Z,7.53
2019-03-13T12:06:57.204Z,6.83
2019-03-13T12:09:36.404Z,7.70
2019-03-13T12:12:38.303Z,6.93
2019-03-13T12:15:20.440Z,7.23
2019-03-13T12:17:57.369Z,7.60
2019-03-13T12:20:31.263Z,6.97
2019-03-13T12:23:18.109Z,8.03
2019-03-13T12:26:03.756Z,7.60
2019-03-13T12:28:37.108Z,7.53
2019-03-13T12:31:20.957Z,8.20
2019-03-13T12:33:55.268Z,6.93
2019-03-13T12:36:31.692Z,8.00
2019-03-13T12:39:08.710Z,7.30
2019-03-13T12:41:48.113Z,8.07
2019-03-13T12:44:22.229Z,7.23
2019-03-13T12:46:59.723Z,7.57
2019-03-13T12:49:46.800Z,6.50
2019-03-13T12:52:21.660Z,6.87
2019-03-13T12:55:11.483Z,7.10
2019-03-13T12:58:06.119Z,6.93
2019-03-13T13:00:55.887Z,7.23
2019-03-13T13:03:49.029Z,6.73
2019-03-13T13:06:24.061Z,7.40
2019-03-13T13:09:01.887Z,6.73
2019-03-13T13:11:46.804Z,6.10
2019-03-13T13:14:26.252Z,5.67
2019-03-13T13:17:13.138Z,5.73
2019-03-13T13:19:40.475Z,5.60
2019-03-13T13:22:07.721Z,6.43
2019-03-13T13:24:35.137Z,5.50
2019-03-13T13:27:02.469Z,6.40
2019-03-13T13:29:29.690Z,6.27
2019-03-13T13:31:57.040Z,6.03
2019-03-13T13:34:24.361Z,6.50
2019-03-13T13:36:51.739Z,5.53
2019-03-13T13:39:19.156Z,5.70
2019-03-13T13:41:46.576Z,6.83
2019-03-13T13:44:13.929Z,6.00
2019-03-13T13:46:44.295Z,4.77
2019-03-13T13:49:10.506Z,6.57
2019-03-13T13:51:37.945Z,6.57
2019-03-13T13:54:05.260Z,7.07
2019-03-13T13:56:32.883Z,6.23
2019-03-13T13:59:00.390Z,6.53
2019-03-13T14:01:27.630Z,7.10
2019-03-13T14:03:54.960Z,6.87
2019-03-13T14:06:22.306Z,6.70
2019-03-13T14:08:49.606Z,6.77
2019-03-13T14:11:16.847Z,6.27
2019-03-13T14:13:44.212Z,6.50
2019-03-13T14:16:11.555Z,6.20
2019-03-13T14:18:38.966Z,5.97
2019-03-13T14:21:06.253Z,6.27
2019-03-13T14:23:33.596Z,6.87
2019-03-13T14:26:00.874Z,6.53
2019-03-13T14:28:28.302Z,6.70
2019-03-13T14:30:55.824Z,5.80
2019-03-13T14:33:23.157Z,6.43
2019-03-13T14:35:50.520Z,6.07
2019-03-13T14:38:18.031Z,5.50
2019-03-13T14:40:45.308Z,6.00
2019-03-13T14:43:12.604Z,6.23
2019-03-13T14:45:40.388Z,6.27
2019-03-13T14:48:07.703Z,6.13
2019-03-13T14:50:36.412Z,5.47
2019-03-13T14:53:04.061Z,5.30
2019-03-13T14:55:31.459Z,5.70
2019-03-13T14:57:58.674Z,5.73
2019-03-13T15:00:26.017Z,5.47
2019-03-13T15:02:53.277Z,4.77
2019-03-13T15:05:20.626Z,4.70
2019-03-13T15:07:47.973Z,4.83
2019-03-13T15:10:15.272Z,4.80
2019-03-13T15:12:43.211Z,5.60
2019-03-13T15:15:11.244Z,5.40
2019-03-13T15:17:38.589Z,5.87
2019-03-13T15:20:09.111Z,6.67
2019-03-13T15:22:36.456Z,7.60
2019-03-13T15:25:04.494Z,6.17
2019-03-13T15:27:31.810Z,5.63
2019-03-13T15:29:59.153Z,5.80
2019-03-13T15:32:26.477Z,5.30
2019-03-13T15:34:53.960Z,5.97
2019-03-13T15:37:21.268Z,5.50
2019-03-13T15:39:48.584Z,5.67
2019-03-13T15:42:16.035Z,5.40
2019-03-13T15:44:43.458Z,5.97
2019-03-13T15:47:10.893Z,6.00
2019-03-13T15:49:38.132Z,5.37
2019-03-13T15:52:05.347Z,5.90
2019-03-13T15:54:32.599Z,5.50
2019-03-13T15:56:59.968Z,5.30
2019-03-13T15:59:27.390Z,6.10
2019-03-13T16:01:54.820Z,5.13
2019-03-13T16:04:22.284Z,5.60
2019-03-13T16:06:49.708Z,5.10
2019-03-13T16:09:17.144Z,4.00
2019-03-13T16:11:44.476Z,4.60
2019-03-13T16:14:13.064Z,4.60
2019-03-13T16:16:40.405Z,4.50
2019-03-13T16:19:07.622Z,4.40
2019-03-13T16:21:35.062Z,4.87
2019-03-13T16:24:02.484Z,5.47
2019-03-13T16:26:29.993Z,5.40
2019-03-13T16:28:57.412Z,4.80
2019-03-13T16:31:24.740Z,4.47
2019-03-13T16:33:52.304Z,4.33
2019-03-13T16:36:19.672Z,4.73
2019-03-13T16:38:46.929Z,5.10
2019-03-13T16:41:14.176Z,4.50
2019-03-13T16:43:41.494Z,4.60
2019-03-13T16:46:08.794Z,5.13
2019-03-13T16:48:36.140Z,4.17
2019-03-13T16:51:03.467Z,4.97
2019-03-13T16:53:30.888Z,4.23
2019-03-13T16:55:58.150Z,3.87
2019-03-13T16:58:25.498Z,4.40
2019-03-13T17:00:52.744Z,4.07
2019-03-13T17:03:20.283Z,3.60
2019-03-13T17:05:47.595Z,4.37
2019-03-13T17:08:14.958Z,4.10
2019-03-13T17:10:42.278Z,4.00
2019-03-13T17:13:09.716Z,3.37
2019-03-13T17:15:37.068Z,2.90
2019-03-13T17:18:04.315Z,3.63
2019-03-13T17:20:32.008Z,3.17
2019-03-13T17:22:59.384Z,3.90
2019-03-13T17:25:26.705Z,3.70
2019-03-13T17:27:54.327Z,3.20
2019-03-13T17:30:23.302Z,3.87
2019-03-13T17:32:50.824Z,4.23
2019-03-13T17:35:18.795Z,3.80
2019-03-13T17:37:46.064Z,4.23
2019-03-13T17:40:14.984Z,3.70
2019-03-13T17:42:42.207Z,3.53
2019-03-13T17:45:11.792Z,3.57
2019-03-13T17:47:39.143Z,3.93
2019-03-13T17:50:07.783Z,4.60
2019-03-13T17:52:35.019Z,4.60
2019-03-13T17:55:02.278Z,4.23
2019-03-13T17:57:29.622Z,3.77
2019-03-13T17:59:56.857Z,5.20
2019-03-13T18:02:24.393Z,4.97
2019-03-13T18:04:51.735Z,4.57
2019-03-13T18:07:19.111Z,5.03
2019-03-13T18:09:47.075Z,5.43
2019-03-13T18:12:14.598Z,5.03
2019-03-13T18:14:41.939Z,5.20
2019-03-13T18:17:09.249Z,5.27
2019-03-13T18:19:36.625Z,6.00
2019-03-13T18:22:03.958Z,5.73
2019-03-13T18:24:31.195Z,5.87
2019-03-13T18:26:58.705Z,5.47
2019-03-13T18:29:26.251Z,5.57
2019-03-13T18:31:53.590Z,5.57
2019-03-13T18:34:20.974Z,5.40
2019-03-13T18:36:51.405Z,5.63
2019-03-13T18:39:18.719Z,5.33
2019-03-13T18:41:46.112Z,5.87
2019-03-13T18:44:13.426Z,5.73
2019-03-13T18:46:40.759Z,5.73
2019-03-13T18:49:08.104Z,6.23
2019-03-13T18:51:35.540Z,5.63
2019-03-13T18:54:02.885Z,5.93
2019-03-13T18:56:30.234Z,5.50
2019-03-13T18:58:57.584Z,6.10
2019-03-13T19:01:24.999Z,5.47
2019-03-13T19:03:52.389Z,5.33
2019-03-13T19:06:19.695Z,5.37
2019-03-13T19:08:47.066Z,5.40
2019-03-13T19:11:14.709Z,6.67
2019-03-13T19:13:42.149Z,5.50
2019-03-13T19:16:09.509Z,4.97
2019-03-13T19:18:36.791Z,5.10
2019-03-13T19:21:04.110Z,4.97
2019-03-13T19:23:31.452Z,3.07
2019-03-13T19:25:58.691Z,4.67
2019-03-13T19:28:25.908Z,4.73
2019-03-13T19:30:53.255Z,4.90
2019-03-13T19:33:20.488Z,5.30
2019-03-13T19:35:47.892Z,5.23
2019-03-13T19:38:15.218Z,5.03
2019-03-13T19:40:42.682Z,5.37
2019-03-13T19:43:09.986Z,5.10
2019-03-13T19:45:39.251Z,5.63
2019-03-13T19:48:06.466Z,4.97
2019-03-13T19:50:33.785Z,4.93
2019-03-13T19:53:01.376Z,4.70
2019-03-13T19:55:28.731Z,4.50
2019-03-13T19:57:56.076Z,4.60
2019-03-13T20:00:24.232Z,4.43
2019-03-13T20:03:00.121Z,4.37
2019-03-13T20:05:21.024Z,4.23
2019-03-13T20:07:48.299Z,4.40
2019-03-13T20:10:17.976Z,4.60
2019-03-13T20:12:45.410Z,4.97
2019-03-13T20:15:15.087Z,4.37
2019-03-13T20:17:42.412Z,4.70
2019-03-13T20:20:10.756Z,4.23
2019-03-13T20:22:37.973Z,4.50
2019-03-13T20:25:07.007Z,4.10
2019-03-13T20:27:34.304Z,4.87
2019-03-13T20:30:01.656Z,4.93
2019-03-13T20:32:28.992Z,3.83
2019-03-13T20:34:56.343Z,4.17
2019-03-13T20:37:23.728Z,4.43
2019-03-13T20:39:50.972Z,4.67
2019-03-13T20:42:18.352Z,4.60
2019-03-13T20:44:45.663Z,4.10
2019-03-13T20:47:13.056Z,5.17
2019-03-13T20:49:40.288Z,4.60
2019-03-13T20:52:07.679Z,5.20
2019-03-13T20:54:35.000Z,4.80
2019-03-13T20:57:02.321Z,4.33
2019-03-13T20:59:32.443Z,3.80
2019-03-13T21:02:00.179Z,3.90
2019-03-13T21:04:27.871Z,4.10
2019-03-13T21:06:55.212Z,3.60
2019-03-13T21:09:22.651Z,3.73
2019-03-13T21:11:49.987Z,4.23
2019-03-13T21:14:17.461Z,3.70
2019-03-13T21:16:44.709Z,3.73
2019-03-13T21:19:12.064Z,4.00
2019-03-13T21:21:40.162Z,4.33
2019-03-13T21:24:07.559Z,4.00
2019-03-13T21:26:34.923Z,3.57
2019-03-13T21:29:02.253Z,3.67
2019-03-13T21:31:29.737Z,3.60
2019-03-13T21:33:57.095Z,4.00
2019-03-13T21:36:24.560Z,3.77
2019-03-13T21:38:51.872Z,4.00
2019-03-13T21:41:19.228Z,3.60
2019-03-13T21:43:46.595Z,3.90
2019-03-13T21:46:13.955Z,4.07
2019-03-13T21:48:41.228Z,3.97
2019-03-13T21:51:08.483Z,3.47
2019-03-13T21:53:35.701Z,3.90
2019-03-13T21:56:03.065Z,4.00
2019-03-13T21:58:31.667Z,3.80
2019-03-13T22:00:58.911Z,4.07
2019-03-13T22:03:29.793Z,4.50
2019-03-13T22:05:55.510Z,4.20
2019-03-13T22:08:22.802Z,4.23
2019-03-13T22:10:50.151Z,3.90
2019-03-13T22:13:17.360Z,3.80
2019-03-13T22:15:44.586Z,3.97
2019-03-13T22:18:11.924Z,4.10
2019-03-13T22:20:39.256Z,4.23
2019-03-13T22:23:06.531Z,4.27
2019-03-13T22:25:33.821Z,3.80
2019-03-13T22:28:01.160Z,4.40
2019-03-13T22:30:29.140Z,4.13
2019-03-13T22:32:56.679Z,4.10
2019-03-13T22:35:24.105Z,4.40
2019-03-13T22:37:51.438Z,3.90
2019-03-13T22:40:18.875Z,4.33
2019-03-13T22:42:46.416Z,3.63
2019-03-13T22:45:13.873Z,3.73
2019-03-13T22:47:42.920Z,3.50
2019-03-13T22:50:12.600Z,3.70
2019-03-13T22:52:39.907Z,3.80
2019-03-13T22:55:08.079Z,3.13
2019-03-13T22:57:37.124Z,3.00
2019-03-13T23:00:12.412Z,3.00
2019-03-13T23:02:39.969Z,3.00
2019-03-13T23:05:07.399Z,2.77
2019-03-13T23:07:34.744Z,3.20
2019-03-13T23:10:02.271Z,2.80
2019-03-13T23:12:30.450Z,2.80
2019-03-13T23:14:57.922Z,2.67
2019-03-13T23:17:25.267Z,3.30
2019-03-13T23:19:52.583Z,2.70
2019-03-13T23:22:19.924Z,2.40
2019-03-13T23:24:47.296Z,2.47
2019-03-13T23:27:14.609Z,2.50
2019-03-13T23:29:41.944Z,2.60
2019-03-13T23:32:09.438Z,2.30
2019-03-13T23:34:36.803Z,2.10
2019-03-13T23:37:04.244Z,2.23
2019-03-13T23:39:31.613Z,2.10
2019-03-13T23:41:59.075Z,2.03
2019-03-13T23:44:26.451Z,2.30
2019-03-13T23:46:53.773Z,2.10
2019-03-13T23:49:21.080Z,1.90
2019-03-13T23:51:48.447Z,2.13
2019-03-13T23:54:15.768Z,2.20
2019-03-13T23:56:43.112Z,2.10
2019-03-13T23:59:10.444Z,1.90
